createdAt,value
2018-12-24T00:01:00.080Z,93.10
2018-12-24T00:03:41.091Z,92.90
2018-12-24T00:06:21.585Z,92.80
2018-12-24T00:09:03.857Z,92.30
2018-12-24T00:11:43.613Z,92.60
2018-12-24T00:14:25.190Z,92.50
2018-12-24T00:17:04.893Z,92.90
2018-12-24T00:19:44.929Z,92.70
2018-12-24T00:22:26.888Z,92.30
2018-12-24T00:25:07.015Z,92.30
2018-12-24T00:27:47.000Z,92.60
2018-12-24T00:30:28.243Z,92.10
2018-12-24T00:39:16.665Z,91.70
2018-12-24T00:41:57.291Z,91.70
2018-12-24T00:44:37.413Z,92.10
2018-12-24T00:47:18.309Z,91.50
2018-12-24T00:49:58.661Z,91.50
2018-12-24T00:52:39.659Z,91.40
2018-12-24T00:55:39.099Z,91.40
2018-12-24T01:01:29.669Z,91.10
2018-12-24T01:04:10.468Z,91.10
2018-12-24T01:10:11.813Z,91.20
2018-12-24T01:12:52.392Z,90.90
2018-12-24T01:18:41.817Z,90.90
2018-12-24T01:21:21.669Z,90.70
2018-12-24T01:24:01.685Z,90.40
2018-12-24T01:26:41.877Z,90.90
2018-12-24T01:29:21.789Z,90.80
2018-12-24T01:32:01.711Z,91.00
2018-12-24T01:38:00.897Z,90.30
2018-12-24T01:41:00.172Z,90.40
2018-12-24T01:43:59.417Z,90.40
2018-12-24T01:46:38.870Z,90.60
2018-12-24T01:49:18.877Z,90.40
2018-12-24T01:51:59.124Z,90.40
2018-12-24T01:54:38.968Z,90.30
2018-12-24T01:57:20.209Z,89.70
2018-12-24T02:00:00.000Z,89.60
2018-12-24T02:02:40.104Z,89.60
2018-12-24T02:05:20.550Z,89.00
2018-12-24T02:08:00.289Z,90.30
2018-12-24T02:10:40.510Z,90.00
2018-12-24T02:13:23.760Z,89.10
2018-12-24T02:16:03.765Z,88.80
2018-12-24T02:18:43.740Z,89.00
2018-12-24T02:24:27.733Z,87.70
2018-12-24T02:27:08.539Z,87.80
2018-12-24T02:30:08.701Z,87.50
2018-12-24T02:33:08.394Z,88.20
2018-12-24T02:38:33.715Z,88.10
2018-12-24T02:41:13.101Z,87.20
2018-12-24T02:47:18.635Z,87.60
2018-12-24T02:49:58.594Z,87.20
2018-12-24T02:52:38.743Z,87.40
2018-12-24T02:55:19.024Z,87.60
2018-12-24T02:57:58.655Z,87.50
2018-12-24T03:00:38.888Z,86.80
2018-12-24T03:03:19.308Z,87.60
2018-12-24T03:05:59.882Z,87.70
2018-12-24T03:08:40.061Z,86.60
2018-12-24T03:11:20.980Z,86.90
2018-12-24T03:17:12.124Z,85.80
2018-12-24T03:22:38.185Z,85.80
2018-12-24T03:28:02.547Z,85.30
2018-12-24T03:30:42.539Z,85.70
2018-12-24T03:39:55.828Z,85.30
2018-12-24T03:42:35.964Z,84.80
2018-12-24T03:45:16.088Z,84.90
2018-12-24T03:47:55.480Z,84.40
2018-12-24T03:50:35.644Z,84.30
2018-12-24T03:53:15.336Z,83.50
2018-12-24T03:55:55.321Z,83.90
2018-12-24T03:58:35.631Z,84.30
2018-12-24T04:01:15.473Z,83.70
2018-12-24T04:03:55.604Z,83.60
2018-12-24T04:06:34.928Z,83.80
2018-12-24T04:09:15.242Z,83.30
2018-12-24T04:11:55.216Z,83.70
2018-12-24T04:14:35.468Z,83.50
2018-12-24T04:17:15.893Z,82.90
2018-12-24T04:19:55.737Z,83.40
2018-12-24T04:22:35.900Z,83.30
2018-12-24T04:25:16.176Z,83.60
2018-12-24T04:27:55.864Z,83.90
2018-12-24T04:30:35.996Z,83.40
2018-12-24T04:33:16.052Z,83.60
2018-12-24T04:35:56.166Z,83.10
2018-12-24T04:38:36.284Z,82.70
2018-12-24T04:41:16.136Z,83.30
2018-12-24T04:43:56.019Z,82.90
2018-12-24T04:46:36.124Z,83.40
2018-12-24T04:49:16.124Z,83.10
2018-12-24T04:51:56.238Z,83.20
2018-12-24T04:54:36.464Z,82.90
2018-12-24T04:57:16.456Z,82.80
2018-12-24T04:59:56.097Z,82.10
2018-12-24T05:02:36.243Z,82.80
2018-12-24T05:05:16.320Z,82.50
2018-12-24T05:07:56.551Z,82.40
2018-12-24T05:10:36.560Z,82.70
2018-12-24T05:13:16.576Z,82.20
2018-12-24T05:15:56.965Z,82.60
2018-12-24T05:18:36.972Z,82.30
2018-12-24T05:21:16.788Z,82.10
2018-12-24T05:23:57.244Z,82.00
2018-12-24T05:26:37.141Z,81.70
2018-12-24T05:29:17.144Z,81.50
2018-12-24T05:31:57.275Z,81.20
2018-12-24T05:34:37.412Z,81.40
2018-12-24T05:37:17.480Z,81.30
2018-12-24T05:39:57.719Z,81.40
2018-12-24T05:42:37.764Z,81.20
2018-12-24T05:45:17.237Z,81.30
2018-12-24T05:47:57.428Z,81.10
2018-12-24T05:50:37.492Z,80.70
2018-12-24T05:53:17.656Z,81.40
2018-12-24T05:55:58.117Z,81.10
2018-12-24T05:58:38.774Z,81.30
2018-12-24T06:01:18.340Z,81.00
2018-12-24T06:03:58.560Z,81.20
2018-12-24T06:06:38.780Z,81.20
2018-12-24T06:09:18.755Z,81.10
2018-12-24T06:11:58.988Z,80.70
2018-12-24T06:14:39.024Z,80.80
2018-12-24T06:17:19.204Z,80.30
2018-12-24T06:19:59.252Z,80.50
2018-12-24T06:22:40.235Z,80.90
2018-12-24T06:25:20.209Z,80.50
2018-12-24T06:28:00.239Z,80.60
2018-12-24T06:30:40.224Z,80.60
2018-12-24T06:33:20.593Z,80.30
2018-12-24T06:36:00.188Z,80.20
2018-12-24T06:38:40.364Z,80.40
2018-12-24T06:41:19.704Z,80.00
2018-12-24T06:44:06.640Z,79.90
2018-12-24T06:46:41.808Z,80.00
2018-12-24T06:49:21.784Z,80.00
2018-12-24T06:52:01.721Z,79.50
2018-12-24T06:54:41.944Z,79.80
2018-12-24T06:57:22.187Z,79.90
2018-12-24T07:00:02.158Z,80.00
2018-12-24T07:02:42.235Z,79.80
2018-12-24T07:05:22.017Z,79.80
2018-12-24T07:08:02.019Z,79.80
2018-12-24T07:10:42.192Z,79.40
2018-12-24T07:13:22.111Z,79.00
2018-12-24T07:16:02.166Z,79.40
2018-12-24T07:18:42.228Z,78.50
2018-12-24T07:21:21.979Z,78.60
2018-12-24T07:24:02.096Z,78.60
2018-12-24T07:26:42.224Z,79.20
2018-12-24T07:29:22.329Z,78.50
2018-12-24T07:32:02.433Z,78.50
2018-12-24T07:34:42.403Z,78.10
2018-12-24T07:37:24.000Z,78.60
2018-12-24T07:40:03.768Z,78.50
2018-12-24T07:42:43.824Z,79.30
2018-12-24T07:45:23.516Z,78.30
2018-12-24T07:48:03.696Z,78.50
2018-12-24T07:50:43.624Z,78.10
2018-12-24T07:53:23.684Z,78.40
2018-12-24T07:56:03.308Z,78.30
2018-12-24T07:58:43.368Z,78.00
2018-12-24T08:01:23.516Z,78.40
2018-12-24T08:04:03.641Z,78.10
2018-12-24T08:06:43.492Z,78.10
2018-12-24T08:09:23.660Z,78.20
2018-12-24T08:12:03.891Z,78.90
2018-12-24T08:14:43.404Z,78.20
2018-12-24T08:17:23.624Z,79.20
2018-12-24T08:20:03.631Z,78.60
2018-12-24T08:22:43.792Z,79.10
2018-12-24T08:25:23.660Z,79.40
2018-12-24T08:28:03.156Z,78.40
2018-12-24T08:30:43.046Z,79.30
2018-12-24T08:33:23.267Z,78.70
2018-12-24T08:36:03.380Z,77.80
2018-12-24T08:38:43.504Z,78.60
2018-12-24T08:41:23.228Z,78.90
2018-12-24T08:44:03.132Z,78.00
2018-12-24T08:46:42.992Z,79.00
2018-12-24T08:49:23.120Z,77.80
2018-12-24T08:52:03.052Z,78.80
2018-12-24T08:54:43.188Z,78.40
2018-12-24T08:57:23.316Z,78.30
2018-12-24T09:00:03.623Z,79.20
2018-12-24T09:02:43.708Z,78.60
2018-12-24T09:05:23.912Z,79.00
2018-12-24T09:08:03.928Z,79.40
2018-12-24T09:10:44.000Z,80.10
2018-12-24T09:13:23.931Z,77.70
2018-12-24T09:16:04.143Z,78.20
2018-12-24T09:18:44.276Z,77.60
2018-12-24T09:21:24.177Z,78.60
2018-12-24T09:24:04.343Z,77.60
2018-12-24T09:26:44.260Z,79.70
2018-12-24T09:29:24.308Z,78.80
2018-12-24T09:32:04.399Z,79.50
2018-12-24T09:34:44.120Z,78.40
2018-12-24T09:37:24.028Z,79.50
2018-12-24T09:40:04.024Z,79.30
2018-12-24T09:42:44.209Z,80.30
2018-12-24T09:45:24.196Z,79.20
2018-12-24T09:48:04.168Z,80.50
2018-12-24T09:50:44.121Z,79.40
2018-12-24T09:53:24.363Z,79.00
2018-12-24T09:56:04.224Z,80.10
2018-12-24T09:58:44.254Z,78.50
2018-12-24T10:01:23.624Z,78.00
2018-12-24T10:04:03.700Z,77.60
2018-12-24T10:06:44.128Z,78.20
2018-12-24T10:09:24.356Z,78.10
2018-12-24T10:12:04.102Z,78.70
2018-12-24T10:14:45.455Z,78.00
2018-12-24T10:17:25.559Z,78.00
2018-12-24T10:20:05.802Z,78.90
2018-12-24T10:22:46.104Z,79.00
2018-12-24T10:25:26.264Z,78.30
2018-12-24T10:28:06.832Z,78.10
2018-12-24T10:30:47.537Z,77.60
2018-12-24T10:33:27.813Z,78.20
2018-12-24T10:36:07.676Z,78.50
2018-12-24T10:38:48.886Z,77.50
2018-12-24T10:41:31.110Z,78.00
2018-12-24T10:44:11.060Z,76.90
2018-12-24T10:46:51.057Z,76.20
2018-12-24T10:49:31.076Z,75.50
2018-12-24T10:52:12.067Z,75.70
2018-12-24T10:54:52.400Z,75.20
2018-12-24T10:57:32.368Z,75.00
2018-12-24T11:00:12.703Z,73.70
2018-12-24T11:02:52.656Z,73.90
2018-12-24T11:05:32.796Z,74.30
2018-12-24T11:08:12.754Z,73.80
2018-12-24T11:10:52.668Z,74.10
2018-12-24T11:13:32.737Z,73.90
2018-12-24T11:16:13.880Z,75.20
2018-12-24T11:18:54.076Z,75.00
2018-12-24T11:21:35.644Z,74.40
2018-12-24T11:24:15.432Z,74.60
2018-12-24T11:26:56.809Z,74.30
2018-12-24T11:29:36.256Z,74.80
2018-12-24T11:32:16.292Z,74.50
2018-12-24T11:34:55.756Z,74.70
2018-12-24T11:37:35.742Z,74.70
2018-12-24T11:40:15.613Z,73.60
2018-12-24T11:42:56.836Z,73.70
2018-12-24T11:45:37.790Z,74.30
2018-12-24T11:48:17.695Z,73.40
2018-12-24T11:50:58.931Z,73.00
2018-12-24T11:53:39.209Z,73.80
2018-12-24T11:56:20.683Z,72.80
2018-12-24T11:59:00.568Z,72.20
2018-12-24T12:01:40.568Z,72.80
2018-12-24T12:04:20.589Z,71.70
2018-12-24T12:07:00.730Z,71.20
2018-12-24T12:09:41.999Z,71.70
2018-12-24T12:12:23.928Z,71.20
2018-12-24T12:15:05.008Z,72.20
2018-12-24T12:17:45.159Z,71.70
2018-12-24T12:20:25.030Z,71.20
2018-12-24T12:23:05.376Z,71.50
2018-12-24T12:25:46.276Z,70.70
2018-12-24T12:28:26.185Z,70.70
2018-12-24T12:31:06.047Z,70.60
2018-12-24T12:33:46.414Z,70.40
2018-12-24T12:36:27.308Z,70.40
2018-12-24T12:39:07.413Z,70.60
2018-12-24T12:41:47.412Z,71.70
2018-12-24T12:44:27.320Z,70.90
2018-12-24T12:47:08.329Z,70.50
2018-12-24T12:49:48.812Z,69.70
2018-12-24T12:52:29.664Z,68.70
2018-12-24T12:55:10.870Z,69.90
2018-12-24T12:57:50.936Z,69.60
2018-12-24T13:00:30.872Z,69.50
2018-12-24T13:03:10.828Z,69.00
2018-12-24T13:05:51.716Z,67.70
2018-12-24T13:08:32.017Z,66.40
2018-12-24T13:11:11.909Z,67.20
2018-12-24T13:13:51.868Z,66.70
2018-12-24T13:16:32.080Z,65.90
2018-12-24T13:19:11.903Z,66.50
2018-12-24T13:21:52.452Z,65.70
2018-12-24T13:24:32.562Z,66.20
2018-12-24T13:27:13.504Z,66.10
2018-12-24T13:29:53.380Z,64.70
2018-12-24T13:32:33.553Z,65.40
2018-12-24T13:35:14.440Z,65.90
2018-12-24T13:37:54.396Z,65.30
2018-12-24T13:40:34.285Z,65.20
2018-12-24T13:43:14.296Z,65.60
2018-12-24T13:45:54.202Z,63.90
2018-12-24T13:48:34.252Z,65.10
2018-12-24T13:51:15.367Z,64.70
2018-12-24T13:53:55.364Z,64.60
2018-12-24T13:56:35.528Z,65.10
2018-12-24T13:59:16.812Z,63.70
2018-12-24T14:01:56.707Z,64.20
2018-12-24T14:04:36.656Z,64.20
2018-12-24T14:07:18.686Z,63.90
2018-12-24T14:09:59.026Z,64.40
2018-12-24T14:12:38.956Z,64.30
2018-12-24T14:15:18.988Z,64.00
2018-12-24T14:17:59.195Z,63.90
2018-12-24T14:20:39.068Z,63.10
2018-12-24T14:23:21.230Z,63.70
2018-12-24T14:26:01.396Z,63.70
2018-12-24T14:28:41.348Z,63.10
2018-12-24T14:31:21.708Z,63.60
2018-12-24T14:34:01.456Z,63.10
2018-12-24T14:36:41.536Z,64.30
2018-12-24T14:39:21.315Z,62.40
2018-12-24T14:42:01.424Z,63.90
2018-12-24T14:44:41.604Z,64.10
2018-12-24T14:47:21.576Z,64.00
2018-12-24T14:50:01.649Z,64.80
2018-12-24T14:52:41.635Z,64.00
2018-12-24T14:55:22.680Z,64.00
2018-12-24T14:58:02.788Z,63.90
2018-12-24T15:00:42.912Z,63.80
2018-12-24T15:03:22.700Z,64.10
2018-12-24T15:06:03.077Z,64.40
2018-12-24T15:08:43.184Z,64.50
2018-12-24T15:11:23.156Z,64.30
2018-12-24T15:14:03.220Z,64.50
2018-12-24T15:16:44.556Z,64.30
2018-12-24T15:19:24.672Z,64.30
2018-12-24T15:22:04.468Z,63.80
2018-12-24T15:24:44.564Z,63.80
2018-12-24T15:27:24.524Z,64.00
2018-12-24T15:30:04.758Z,64.50
2018-12-24T15:32:45.095Z,63.90
2018-12-24T15:35:25.824Z,64.60
2018-12-24T15:38:05.952Z,64.40
2018-12-24T15:40:46.159Z,63.90
2018-12-24T15:43:26.352Z,64.80
2018-12-24T15:46:06.416Z,64.60
2018-12-24T15:48:46.511Z,64.50
2018-12-24T15:51:27.604Z,64.40
2018-12-24T15:54:07.484Z,64.00
2018-12-24T15:56:47.590Z,64.40
2018-12-24T15:59:27.876Z,64.40
2018-12-24T16:02:08.128Z,63.90
2018-12-24T16:04:48.004Z,63.60
2018-12-24T16:07:28.004Z,64.00
2018-12-24T16:10:08.068Z,64.40
2018-12-24T16:12:48.036Z,64.40
2018-12-24T16:15:28.524Z,64.10
2018-12-24T16:18:08.277Z,64.00
2018-12-24T16:20:49.384Z,63.40
2018-12-24T16:23:33.677Z,63.60
2018-12-24T16:26:13.728Z,63.60
2018-12-24T16:28:53.704Z,63.40
2018-12-24T16:31:33.689Z,63.30
2018-12-24T16:34:13.837Z,63.20
2018-12-24T16:36:54.068Z,63.80
2018-12-24T16:39:34.836Z,63.90
2018-12-24T16:42:15.931Z,64.00
2018-12-24T16:44:55.632Z,64.30
2018-12-24T16:47:35.684Z,64.20
2018-12-24T16:50:15.712Z,64.00
2018-12-24T16:52:55.622Z,64.00
2018-12-24T16:55:35.648Z,64.00
2018-12-24T16:58:15.628Z,63.80
2018-12-24T17:00:55.706Z,63.60
2018-12-24T17:03:35.744Z,63.70
2018-12-24T17:06:16.544Z,63.80
2018-12-24T17:08:56.828Z,64.00
2018-12-24T17:11:37.686Z,63.90
2018-12-24T17:14:17.552Z,63.90
2018-12-24T17:16:57.616Z,63.50
2018-12-24T17:19:37.380Z,63.80
2018-12-24T17:22:17.276Z,62.90
2018-12-24T17:24:58.508Z,63.80
2018-12-24T17:27:39.220Z,64.30
2018-12-24T17:30:19.488Z,63.40
2018-12-24T17:33:01.743Z,63.90
2018-12-24T17:35:41.403Z,63.90
2018-12-24T17:38:21.460Z,63.30
2018-12-24T17:41:02.312Z,63.20
2018-12-24T17:43:42.224Z,63.70
2018-12-24T17:46:22.132Z,63.10
2018-12-24T17:49:02.240Z,62.40
2018-12-24T17:51:42.448Z,62.70
2018-12-24T17:54:23.403Z,62.80
2018-12-24T17:57:03.812Z,62.50
2018-12-24T17:59:43.935Z,63.60
2018-12-24T18:02:24.919Z,62.60
2018-12-24T18:05:05.633Z,63.10
2018-12-24T18:07:45.893Z,62.90
2018-12-24T18:10:25.964Z,62.60
2018-12-24T18:13:05.796Z,62.90
2018-12-24T18:15:45.832Z,62.50
2018-12-24T18:18:25.975Z,62.90
2018-12-24T18:21:05.883Z,62.80
2018-12-24T18:23:46.092Z,62.70
2018-12-24T18:26:25.761Z,63.50
2018-12-24T18:29:06.219Z,62.30
2018-12-24T18:31:45.940Z,62.70
2018-12-24T18:34:26.446Z,62.60
2018-12-24T18:37:07.336Z,62.60
2018-12-24T18:39:47.457Z,63.00
2018-12-24T18:42:27.492Z,63.00
2018-12-24T18:45:07.416Z,62.90
2018-12-24T18:47:47.625Z,62.00
2018-12-24T18:50:27.735Z,61.90
2018-12-24T18:53:08.872Z,62.30
2018-12-24T18:55:48.937Z,61.60
2018-12-24T18:58:28.921Z,62.30
2018-12-24T19:01:08.804Z,61.70
2018-12-24T19:03:48.988Z,61.70
2018-12-24T19:06:28.892Z,61.60
2018-12-24T19:09:08.812Z,61.00
2018-12-24T19:11:48.077Z,62.00
2018-12-24T19:14:28.139Z,61.80
2018-12-24T19:17:08.410Z,62.00
2018-12-24T19:19:49.516Z,61.80
2018-12-24T19:22:29.343Z,61.80
2018-12-24T19:25:10.348Z,61.40
2018-12-24T19:27:50.289Z,62.90
2018-12-24T19:30:30.202Z,62.10
2018-12-24T19:33:10.380Z,62.00
2018-12-24T19:35:49.902Z,61.50
2018-12-24T19:38:30.512Z,61.90
2018-12-24T19:41:10.628Z,61.40
2018-12-24T19:43:50.664Z,61.90
2018-12-24T19:46:30.808Z,61.60
2018-12-24T19:49:11.172Z,61.80
2018-12-24T19:51:51.416Z,61.90
2018-12-24T19:54:31.528Z,61.70
2018-12-24T19:57:11.537Z,61.70
2018-12-24T19:59:52.756Z,61.40
2018-12-24T20:02:32.836Z,62.00
2018-12-24T20:05:12.740Z,61.80
2018-12-24T20:07:54.024Z,61.50
2018-12-24T20:10:34.216Z,62.00
2018-12-24T20:13:14.032Z,61.80
2018-12-24T20:15:54.368Z,61.70
2018-12-24T20:18:34.305Z,61.80
2018-12-24T20:21:14.316Z,61.50
2018-12-24T20:23:54.264Z,62.00
2018-12-24T20:26:34.272Z,61.70
2018-12-24T20:29:14.560Z,61.50
2018-12-24T20:31:54.308Z,61.70
2018-12-24T20:34:34.433Z,62.10
2018-12-24T20:37:14.580Z,62.10
2018-12-24T20:39:54.692Z,61.70
2018-12-24T20:42:34.821Z,61.40
2018-12-24T20:45:14.846Z,62.00
2018-12-24T20:47:54.832Z,61.90
2018-12-24T20:50:34.928Z,61.70
2018-12-24T20:53:15.885Z,61.80
2018-12-24T20:55:56.151Z,61.90
2018-12-24T20:58:36.001Z,62.50
2018-12-24T21:01:17.276Z,61.40
2018-12-24T21:03:57.424Z,61.30
2018-12-24T21:06:37.570Z,61.40
2018-12-24T21:09:17.748Z,61.40
2018-12-24T21:11:57.856Z,61.10
2018-12-24T21:14:38.190Z,61.20
2018-12-24T21:17:19.350Z,62.20
2018-12-24T21:20:01.400Z,61.40
2018-12-24T21:22:41.113Z,61.30
2018-12-24T21:25:21.128Z,61.10
2018-12-24T21:28:00.675Z,61.30
2018-12-24T21:30:41.591Z,60.80
2018-12-24T21:33:21.893Z,60.60
2018-12-24T21:36:03.618Z,61.00
2018-12-24T21:38:44.765Z,60.50
2018-12-24T21:41:25.076Z,59.80
2018-12-24T21:44:05.227Z,61.70
2018-12-24T21:46:45.252Z,60.80
2018-12-24T21:49:25.447Z,60.70
2018-12-24T21:52:05.492Z,60.40
2018-12-24T21:54:45.252Z,60.30
2018-12-24T21:57:26.412Z,60.50
2018-12-24T22:00:06.460Z,60.40
2018-12-24T22:02:46.496Z,60.20
2018-12-24T22:05:26.561Z,60.20
2018-12-24T22:08:07.585Z,60.40
2018-12-24T22:10:47.760Z,59.80
2018-12-24T22:15:10.213Z,59.80
2018-12-24T22:17:58.272Z,60.30
2018-12-24T22:20:25.901Z,60.50
2018-12-24T22:22:53.829Z,60.70
2018-12-24T22:25:21.239Z,60.90
2018-12-24T22:27:49.520Z,61.00
2018-12-24T22:30:16.902Z,60.80
2018-12-24T22:32:44.047Z,60.60
2018-12-24T22:35:11.225Z,60.40
2018-12-24T22:37:38.967Z,60.30
2018-12-24T22:40:07.359Z,60.70
2018-12-24T22:42:34.461Z,60.40
2018-12-24T22:45:02.446Z,60.90
2018-12-24T22:47:29.567Z,60.60
2018-12-24T22:49:57.391Z,60.90
2018-12-24T22:52:25.527Z,60.80
2018-12-24T22:54:52.818Z,60.70
2018-12-24T22:57:21.045Z,60.50
2018-12-24T22:59:48.635Z,60.60
2018-12-24T23:02:16.125Z,60.40
2018-12-24T23:04:44.579Z,60.50
2018-12-24T23:07:12.295Z,60.60
2018-12-24T23:09:39.259Z,60.30
2018-12-24T23:12:06.884Z,60.20
2018-12-24T23:14:34.399Z,59.70
2018-12-24T23:17:01.459Z,59.80
2018-12-24T23:19:29.052Z,59.90
2018-12-24T23:21:57.887Z,60.10
2018-12-24T23:24:25.504Z,60.00
2018-12-24T23:26:52.365Z,59.70
2018-12-24T23:29:20.373Z,59.60
2018-12-24T23:31:47.727Z,59.90
2018-12-24T23:34:15.028Z,59.60
2018-12-24T23:36:42.880Z,59.70
2018-12-24T23:39:11.153Z,59.80
2018-12-24T23:41:38.381Z,59.80
2018-12-24T23:44:05.911Z,59.40
2018-12-24T23:46:33.407Z,59.40
2018-12-24T23:49:00.435Z,59.50
2018-12-24T23:51:28.060Z,59.60
2018-12-24T23:53:55.220Z,59.40
2018-12-24T23:56:23.767Z,59.20
2018-12-24T23:58:51.468Z,59.60
